createdAt,value
2022-11-16T00:01:27.457Z,89
2022-11-16T00:03:27.542Z,86
2022-11-16T00:05:28.581Z,81
2022-11-16T00:07:27.816Z,83
2022-11-16T00:09:27.864Z,68
2022-11-16T00:11:27.952Z,66
2022-11-16T00:13:28.034Z,70
2022-11-16T00:15:28.156Z,64
2022-11-16T00:17:28.261Z,63
2022-11-16T00:19:28.362Z,67
2022-11-16T00:21:28.618Z,65
2022-11-16T00:23:28.572Z,66
2022-11-16T00:25:28.673Z,64
2022-11-16T00:27:28.752Z,68
2022-11-16T00:29:28.861Z,69
2022-11-16T00:31:28.954Z,70
2022-11-16T00:33:29.056Z,72
2022-11-16T00:35:29.143Z,69
2022-11-16T00:37:29.374Z,76
2022-11-16T00:39:29.343Z,77
2022-11-16T00:41:29.446Z,79
2022-11-16T00:43:29.547Z,73
2022-11-16T00:45:29.638Z,67
2022-11-16T00:47:29.721Z,64
2022-11-16T00:49:29.840Z,64
2022-11-16T00:51:29.997Z,60
2022-11-16T00:53:30.048Z,59
2022-11-16T00:55:30.116Z,60
2022-11-16T00:57:30.237Z,54
2022-11-16T00:59:30.695Z,62
2022-11-16T01:01:30.531Z,63
2022-11-16T01:03:30.547Z,59
2022-11-16T01:05:30.646Z,60
2022-11-16T01:07:30.795Z,61
2022-11-16T01:09:30.798Z,63
2022-11-16T01:11:30.946Z,65
2022-11-16T01:13:31.006Z,68
2022-11-16T01:15:31.074Z,63
2022-11-16T01:17:31.195Z,68
2022-11-16T01:19:31.265Z,72
2022-11-16T01:21:31.388Z,64
2022-11-16T01:23:31.463Z,65
2022-11-16T01:25:31.546Z,59
2022-11-16T01:27:31.655Z,56
2022-11-16T01:29:31.740Z,56
2022-11-16T01:31:31.820Z,54
2022-11-16T01:33:31.917Z,55
2022-11-16T01:35:31.996Z,52
2022-11-16T01:37:32.108Z,51
2022-11-16T01:39:32.166Z,50
2022-11-16T01:41:32.336Z,53
2022-11-16T01:43:32.411Z,50
2022-11-16T01:45:32.559Z,54
2022-11-16T01:47:32.537Z,49
2022-11-16T01:49:32.610Z,54
2022-11-16T01:51:32.724Z,58
2022-11-16T01:53:32.817Z,61
2022-11-16T01:55:32.891Z,60
2022-11-16T01:57:33.121Z,57
2022-11-16T01:59:33.083Z,54
2022-11-16T02:01:33.247Z,48
2022-11-16T02:03:33.390Z,50
2022-11-16T02:05:33.355Z,48
2022-11-16T02:07:33.549Z,49
2022-11-16T02:09:33.533Z,45
2022-11-16T02:11:33.596Z,44
2022-11-16T02:13:33.694Z,46
2022-11-16T02:15:33.778Z,45
2022-11-16T02:17:33.844Z,44
2022-11-16T02:19:33.891Z,47
2022-11-16T02:21:33.978Z,44
2022-11-16T02:23:34.038Z,49
2022-11-16T02:25:34.137Z,49
2022-11-16T02:27:34.171Z,52
2022-11-16T02:29:34.261Z,49
2022-11-16T02:31:34.362Z,47
2022-11-16T02:33:34.432Z,44
2022-11-16T02:36:04.613Z,46
2022-11-16T02:38:04.716Z,45
2022-11-16T02:40:04.842Z,45
2022-11-16T02:42:04.938Z,50
2022-11-16T02:44:05.076Z,46
2022-11-16T02:46:05.239Z,47
2022-11-16T02:48:05.259Z,47
2022-11-16T02:50:05.397Z,47
2022-11-16T02:52:05.489Z,49
2022-11-16T02:54:05.627Z,45
2022-11-16T02:56:05.749Z,46
2022-11-16T02:58:05.863Z,47
2022-11-16T03:00:05.966Z,47
2022-11-16T03:02:06.067Z,47
2022-11-16T03:04:06.190Z,48
2022-11-16T03:06:06.345Z,44
2022-11-16T03:08:06.454Z,46
2022-11-16T03:10:06.529Z,43
2022-11-16T03:12:06.628Z,45
2022-11-16T03:14:06.754Z,44
2022-11-16T03:16:06.943Z,43
2022-11-16T03:18:06.956Z,47
2022-11-16T03:20:07.098Z,44
2022-11-16T03:22:07.188Z,48
2022-11-16T03:24:07.301Z,46
2022-11-16T03:26:07.396Z,47
2022-11-16T03:28:07.537Z,48
2022-11-16T03:30:07.664Z,50
2022-11-16T03:32:07.758Z,48
2022-11-16T03:34:07.870Z,45
2022-11-16T03:36:07.964Z,48
2022-11-16T03:38:08.091Z,45
2022-11-16T03:40:08.164Z,47
2022-11-16T03:42:08.277Z,42
2022-11-16T03:44:08.384Z,44
2022-11-16T03:46:08.498Z,45
2022-11-16T03:48:08.634Z,41
2022-11-16T03:50:08.727Z,42
2022-11-16T03:52:08.863Z,46
2022-11-16T03:54:08.976Z,47
2022-11-16T03:56:09.081Z,45
2022-11-16T03:58:09.216Z,46
2022-11-16T04:00:09.302Z,47
2022-11-16T04:02:09.420Z,47
2022-11-16T04:04:09.548Z,52
2022-11-16T04:06:09.631Z,49
2022-11-16T04:08:09.772Z,49
2022-11-16T04:10:09.852Z,46
2022-11-16T04:12:09.995Z,49
2022-11-16T04:14:10.107Z,45
2022-11-16T04:16:10.194Z,46
2022-11-16T04:18:10.310Z,47
2022-11-16T04:20:10.427Z,43
2022-11-16T04:22:10.565Z,44
2022-11-16T04:24:10.671Z,48
2022-11-16T04:26:10.764Z,48
2022-11-16T04:28:10.932Z,46
2022-11-16T04:30:10.982Z,49
2022-11-16T04:32:11.077Z,48
2022-11-16T04:34:11.217Z,47
2022-11-16T04:36:12.199Z,47
2022-11-16T04:38:11.404Z,44
2022-11-16T04:40:11.516Z,47
2022-11-16T04:42:11.621Z,45
2022-11-16T04:44:11.718Z,45
2022-11-16T04:46:11.820Z,46
2022-11-16T04:48:11.956Z,44
2022-11-16T04:50:12.066Z,43
2022-11-16T04:52:12.179Z,47
2022-11-16T04:54:12.290Z,41
2022-11-16T04:56:12.408Z,45
2022-11-16T04:58:12.495Z,43
2022-11-16T05:00:12.608Z,45
2022-11-16T05:02:12.739Z,44
2022-11-16T05:04:12.849Z,43
2022-11-16T05:06:12.965Z,43
2022-11-16T05:08:13.093Z,43
2022-11-16T05:10:13.149Z,43
2022-11-16T05:12:13.259Z,45
2022-11-16T05:14:13.369Z,43
2022-11-16T05:16:13.456Z,45
2022-11-16T05:18:13.576Z,41
2022-11-16T05:20:13.700Z,44
2022-11-16T05:22:13.900Z,43
2022-11-16T05:24:13.901Z,44
2022-11-16T05:26:14.028Z,46
2022-11-16T05:28:14.186Z,43
2022-11-16T05:30:14.233Z,44
2022-11-16T05:32:14.359Z,42
2022-11-16T05:34:14.438Z,44
2022-11-16T05:36:14.549Z,41
2022-11-16T05:38:14.657Z,41
2022-11-16T05:40:14.762Z,46
2022-11-16T05:42:14.868Z,39
2022-11-16T05:44:15.047Z,42
2022-11-16T05:46:15.069Z,46
2022-11-16T05:48:15.197Z,46
2022-11-16T05:50:15.305Z,65
2022-11-16T05:52:15.379Z,53
2022-11-16T05:54:15.530Z,51
2022-11-16T05:56:15.740Z,52
2022-11-16T05:58:15.692Z,55
2022-11-16T06:00:15.797Z,51
2022-11-16T06:02:15.874Z,51
2022-11-16T06:04:15.989Z,49
2022-11-16T06:06:16.077Z,47
2022-11-16T06:10:16.263Z,50
2022-11-16T06:12:16.349Z,49
2022-11-16T06:14:16.431Z,48
2022-11-16T06:16:16.545Z,48
2022-11-16T06:18:16.605Z,47
2022-11-16T06:20:16.735Z,47
2022-11-16T06:22:16.840Z,49
2022-11-16T06:24:16.924Z,51
2022-11-16T06:26:17.055Z,55
2022-11-16T06:28:17.167Z,51
2022-11-16T06:30:17.245Z,56
2022-11-16T06:32:17.351Z,53
2022-11-16T06:34:17.475Z,56
2022-11-16T06:36:17.560Z,56
2022-11-16T06:38:17.660Z,57
2022-11-16T06:40:17.793Z,54
2022-11-16T06:42:17.877Z,51
2022-11-16T06:44:18.000Z,54
2022-11-16T06:46:18.073Z,50
2022-11-16T06:48:18.177Z,53
2022-11-16T06:50:18.298Z,51
2022-11-16T06:52:18.380Z,50
2022-11-16T06:54:18.463Z,51
2022-11-16T06:56:18.553Z,54
2022-11-16T06:58:18.676Z,54
2022-11-16T07:00:18.759Z,54
2022-11-16T07:02:18.858Z,55
2022-11-16T07:06:19.060Z,58
2022-11-16T07:08:19.154Z,57
2022-11-16T07:10:19.216Z,61
2022-11-16T07:12:19.310Z,59
2022-11-16T07:14:19.410Z,57
2022-11-16T07:16:19.519Z,56
2022-11-16T07:18:19.633Z,59
2022-11-16T07:20:19.710Z,60
2022-11-16T07:22:19.814Z,62
2022-11-16T07:24:19.900Z,64
2022-11-16T07:26:19.998Z,68
2022-11-16T07:28:20.125Z,66
2022-11-16T07:30:20.216Z,64
2022-11-16T07:32:20.343Z,66
2022-11-16T07:34:20.424Z,67
2022-11-16T07:36:20.524Z,67
2022-11-16T07:38:20.593Z,65
2022-11-16T07:40:20.705Z,67
2022-11-16T07:42:20.777Z,63
2022-11-16T07:44:20.883Z,64
2022-11-16T07:46:47.152Z,61
2022-11-16T07:48:21.081Z,59
2022-11-16T07:50:21.219Z,57
2022-11-16T07:52:21.270Z,52
2022-11-16T07:54:21.378Z,52
2022-11-16T07:56:21.470Z,56
2022-11-16T07:58:21.573Z,60
2022-11-16T08:00:21.669Z,59
2022-11-16T08:02:21.740Z,65
2022-11-16T08:04:21.818Z,63
2022-11-16T08:06:21.902Z,67
2022-11-16T08:08:22.006Z,61
2022-11-16T08:10:22.175Z,72
2022-11-16T08:12:22.197Z,73
2022-11-16T08:14:22.279Z,69
2022-11-16T08:16:22.376Z,68
2022-11-16T08:18:22.478Z,79
2022-11-16T08:20:22.569Z,75
2022-11-16T08:22:22.650Z,79
2022-11-16T08:24:22.745Z,77
2022-11-16T08:26:22.853Z,78
2022-11-16T08:28:23.042Z,75
2022-11-16T08:30:23.054Z,77
2022-11-16T08:32:23.121Z,82
2022-11-16T08:34:23.231Z,78
2022-11-16T08:36:23.332Z,72
2022-11-16T08:38:23.400Z,74
2022-11-16T08:40:23.595Z,85
2022-11-16T08:42:23.578Z,79
2022-11-16T08:44:23.707Z,83
2022-11-16T08:46:23.789Z,78
2022-11-16T08:48:23.871Z,78
2022-11-16T08:50:23.955Z,72
2022-11-16T08:52:24.049Z,74
2022-11-16T08:54:24.351Z,75
2022-11-16T08:56:24.259Z,73
2022-11-16T08:58:24.345Z,76
2022-11-16T09:00:24.457Z,71
2022-11-16T09:02:24.503Z,70
2022-11-16T09:04:24.587Z,66
2022-11-16T09:06:24.674Z,64
2022-11-16T09:08:24.779Z,64
2022-11-16T09:10:24.937Z,66
2022-11-16T09:12:32.167Z,68
2022-11-16T09:14:25.035Z,74
2022-11-16T09:16:25.180Z,68
2022-11-16T09:18:25.207Z,74
2022-11-16T09:20:25.306Z,73
2022-11-16T09:22:25.392Z,65
2022-11-16T09:24:25.498Z,68
2022-11-16T09:26:25.578Z,69
2022-11-16T09:28:25.675Z,68
2022-11-16T09:30:25.787Z,74
2022-11-16T09:32:55.905Z,71
2022-11-16T09:34:56.008Z,68
2022-11-16T09:36:56.128Z,67
2022-11-16T09:39:25.791Z,69
2022-11-16T09:41:03.532Z,69
2022-11-16T09:42:56.472Z,66
2022-11-16T09:44:56.588Z,69
2022-11-16T09:46:56.709Z,72
2022-11-16T09:48:56.822Z,70
2022-11-16T09:50:56.919Z,69
2022-11-16T09:52:57.034Z,70
2022-11-16T09:54:57.160Z,66
2022-11-16T09:56:57.269Z,64
2022-11-16T09:58:57.377Z,66
2022-11-16T10:00:57.596Z,64
2022-11-16T10:02:57.597Z,64
2022-11-16T10:04:58.640Z,67
2022-11-16T10:06:57.853Z,72
2022-11-16T10:08:57.936Z,63
2022-11-16T10:10:58.052Z,67
2022-11-16T10:12:58.204Z,73
2022-11-16T10:14:58.256Z,76
2022-11-16T10:16:58.363Z,69
2022-11-16T10:18:58.482Z,72
2022-11-16T10:20:58.593Z,69
2022-11-16T10:22:58.673Z,67
2022-11-16T10:24:58.784Z,67
2022-11-16T10:26:58.893Z,62
2022-11-16T10:28:59.001Z,56
2022-11-16T10:30:59.123Z,52
2022-11-16T10:32:59.258Z,39
2022-11-16T10:34:59.307Z,41
2022-11-16T10:36:59.417Z,36
2022-11-16T10:38:59.520Z,21
2022-11-16T10:40:59.632Z,21
2022-11-16T10:42:59.748Z,23
2022-11-16T10:44:59.855Z,21
2022-11-16T10:46:59.957Z,18
2022-11-16T10:49:00.089Z,21
2022-11-16T10:51:00.170Z,19
2022-11-16T10:53:00.285Z,20
2022-11-16T10:55:00.462Z,20
2022-11-16T10:57:00.508Z,18
2022-11-16T10:59:00.571Z,22
2022-11-16T11:01:00.756Z,23
2022-11-16T11:05:00.860Z,26
2022-11-16T11:07:01.095Z,24
2022-11-16T11:09:01.049Z,26
2022-11-16T11:11:01.146Z,22
2022-11-16T11:13:01.227Z,20
2022-11-16T11:15:01.320Z,19
2022-11-16T11:17:01.462Z,19
2022-11-16T11:19:01.508Z,20
2022-11-16T11:21:01.580Z,18
2022-11-16T11:23:01.694Z,20
2022-11-16T11:25:01.779Z,20
2022-11-16T11:27:01.875Z,20
2022-11-16T11:29:01.995Z,20
2022-11-16T11:31:02.091Z,17
2022-11-16T11:33:02.197Z,18
2022-11-16T11:35:02.260Z,14
2022-11-16T11:37:02.372Z,12
2022-11-16T11:39:02.470Z,13
2022-11-16T11:41:02.541Z,14
2022-11-16T11:43:02.641Z,16
2022-11-16T11:45:02.744Z,15
2022-11-16T11:47:50.411Z,16
2022-11-16T11:49:02.909Z,15
2022-11-16T11:51:03.009Z,18
2022-11-16T11:53:03.143Z,17
2022-11-16T11:55:03.196Z,18
2022-11-16T11:57:03.293Z,16
2022-11-16T11:59:03.385Z,14
2022-11-16T12:01:03.497Z,11
2022-11-16T12:03:03.663Z,12
2022-11-16T12:05:03.695Z,11
2022-11-16T12:07:03.786Z,11
2022-11-16T12:09:03.864Z,10
2022-11-16T12:11:03.936Z,10
2022-11-16T12:13:04.030Z,11
2022-11-16T12:15:04.110Z,13
2022-11-16T12:17:04.193Z,11
2022-11-16T12:19:04.288Z,12
2022-11-16T12:23:04.604Z,16
2022-11-16T12:25:04.548Z,14
2022-11-16T12:27:04.643Z,15
2022-11-16T12:29:04.723Z,16
2022-11-16T12:31:04.835Z,16
2022-11-16T12:33:04.892Z,14
2022-11-16T12:35:04.983Z,14
2022-11-16T12:37:05.072Z,15
2022-11-16T12:39:05.117Z,16
2022-11-16T12:41:05.183Z,16
2022-11-16T12:43:05.266Z,21
2022-11-16T12:45:05.354Z,18
2022-11-16T12:47:05.437Z,18
2022-11-16T12:49:05.526Z,13
2022-11-16T12:51:05.593Z,12
2022-11-16T12:53:05.760Z,13
2022-11-16T12:55:26.457Z,13
2022-11-16T12:57:35.997Z,15
2022-11-16T12:59:36.009Z,14
2022-11-16T13:01:36.152Z,13
2022-11-16T13:03:36.577Z,18
2022-11-16T13:05:36.340Z,17
2022-11-16T13:07:36.470Z,16
2022-11-16T13:09:36.571Z,17
2022-11-16T13:11:36.676Z,18
2022-11-16T13:13:37.414Z,17
2022-11-16T13:15:36.906Z,16
2022-11-16T13:17:37.018Z,16
2022-11-16T13:19:37.110Z,15
2022-11-16T13:21:37.253Z,17
2022-11-16T13:23:37.504Z,16
2022-11-16T13:25:37.408Z,17
2022-11-16T13:27:37.532Z,17
2022-11-16T13:29:37.645Z,18
2022-11-16T13:31:37.734Z,17
2022-11-16T13:33:37.849Z,19
2022-11-16T13:35:37.964Z,18
2022-11-16T13:37:38.156Z,18
2022-11-16T13:39:38.165Z,19
2022-11-16T13:41:38.262Z,24
2022-11-16T13:43:38.376Z,25
2022-11-16T13:45:38.473Z,26
2022-11-16T13:47:38.554Z,24
2022-11-16T13:49:38.674Z,28
2022-11-16T13:51:38.770Z,28
2022-11-16T13:55:38.998Z,24
2022-11-16T13:57:39.100Z,20
2022-11-16T13:59:39.199Z,19
2022-11-16T14:01:39.475Z,20
2022-11-16T14:03:39.403Z,19
2022-11-16T14:05:39.525Z,19
2022-11-16T14:09:39.730Z,18
2022-11-16T14:11:39.836Z,22
2022-11-16T14:13:39.946Z,29
2022-11-16T14:15:40.058Z,106
2022-11-16T14:17:40.298Z,82
2022-11-16T14:19:40.355Z,60
2022-11-16T14:21:40.480Z,43
2022-11-16T14:23:40.545Z,52
2022-11-16T14:25:40.617Z,56
2022-11-16T14:27:40.714Z,51
2022-11-16T14:29:40.775Z,49
2022-11-16T14:31:40.879Z,74
2022-11-16T14:33:40.977Z,65
2022-11-16T14:35:41.071Z,84
2022-11-16T14:37:41.161Z,42
2022-11-16T14:39:41.268Z,64
2022-11-16T14:41:41.369Z,61
2022-11-16T14:43:41.457Z,48
2022-11-16T14:45:41.541Z,59
2022-11-16T14:47:41.609Z,49
2022-11-16T14:49:41.704Z,49
2022-11-16T14:51:41.790Z,53
2022-11-16T14:53:41.877Z,54
2022-11-16T14:55:41.974Z,53
2022-11-16T14:57:42.073Z,92
2022-11-16T14:59:42.177Z,85
2022-11-16T15:01:42.283Z,75
2022-11-16T15:03:42.532Z,77
2022-11-16T15:05:42.490Z,84
2022-11-16T15:07:42.640Z,136
2022-11-16T15:09:42.661Z,107
2022-11-16T15:11:42.761Z,101
2022-11-16T15:13:42.861Z,82
2022-11-16T15:15:42.949Z,44
2022-11-16T15:17:43.043Z,55
2022-11-16T15:19:43.148Z,51
2022-11-16T15:21:43.226Z,56
2022-11-16T15:23:48.914Z,61
2022-11-16T15:25:43.413Z,58
2022-11-16T15:27:43.495Z,53
2022-11-16T15:29:43.590Z,50
2022-11-16T15:31:43.684Z,48
2022-11-16T15:33:43.786Z,47
2022-11-16T15:35:43.856Z,39
2022-11-16T15:37:43.957Z,31
2022-11-16T15:39:44.025Z,38
2022-11-16T15:41:44.127Z,38
2022-11-16T15:44:01.407Z,31
2022-11-16T15:45:44.278Z,33
2022-11-16T15:47:44.365Z,33
2022-11-16T15:49:44.465Z,39
2022-11-16T15:51:44.541Z,49
2022-11-16T15:53:44.633Z,62
2022-11-16T15:55:44.797Z,59
2022-11-16T15:57:46.622Z,70
2022-11-16T15:59:44.893Z,66
2022-11-16T16:01:45.045Z,66
2022-11-16T16:03:45.078Z,63
2022-11-16T16:05:45.163Z,62
2022-11-16T16:08:15.324Z,60
2022-11-16T16:10:15.450Z,68
2022-11-16T16:12:15.540Z,78
2022-11-16T16:14:15.661Z,74
2022-11-16T16:16:15.762Z,76
2022-11-16T16:18:15.871Z,69
2022-11-16T16:20:15.978Z,59
2022-11-16T16:22:16.091Z,60
2022-11-16T16:24:16.190Z,57
2022-11-16T16:26:16.327Z,66
2022-11-16T16:28:16.411Z,73
2022-11-16T16:30:16.528Z,69
2022-11-16T16:32:16.606Z,63
2022-11-16T16:34:16.706Z,61
2022-11-16T16:36:16.807Z,58
2022-11-16T16:38:16.928Z,61
2022-11-16T16:40:17.031Z,59
2022-11-16T16:42:17.157Z,74
2022-11-16T16:44:17.257Z,87
2022-11-16T16:46:17.367Z,78
2022-11-16T16:48:17.487Z,76
2022-11-16T16:50:17.591Z,73
2022-11-16T16:52:17.693Z,74
2022-11-16T16:54:17.809Z,78
2022-11-16T16:56:17.915Z,84
2022-11-16T16:58:18.023Z,79
2022-11-16T17:00:18.136Z,78
2022-11-16T17:02:18.251Z,74
2022-11-16T17:04:18.364Z,67
2022-11-16T17:06:18.473Z,65
2022-11-16T17:08:18.670Z,61
2022-11-16T17:10:18.693Z,60
2022-11-16T17:12:18.818Z,61
2022-11-16T17:14:18.923Z,62
2022-11-16T17:16:19.029Z,72
2022-11-16T17:18:19.137Z,71
2022-11-16T17:20:19.284Z,67
2022-11-16T17:22:19.356Z,66
2022-11-16T17:24:19.467Z,69
2022-11-16T17:26:19.620Z,62
2022-11-16T17:28:19.681Z,59
2022-11-16T17:30:19.787Z,58
2022-11-16T17:32:19.910Z,64
2022-11-16T17:34:20.027Z,61
2022-11-16T17:36:20.132Z,60
2022-11-16T17:38:20.210Z,63
2022-11-16T17:40:20.308Z,65
2022-11-16T17:42:20.405Z,59
2022-11-16T17:44:22.051Z,63
2022-11-16T17:46:20.659Z,66
2022-11-16T17:48:20.713Z,73
2022-11-16T17:50:20.820Z,69
2022-11-16T17:52:20.930Z,66
2022-11-16T17:54:21.026Z,64
2022-11-16T17:56:21.134Z,64
2022-11-16T17:58:21.215Z,72
2022-11-16T18:00:21.310Z,92
2022-11-16T18:02:21.433Z,96
2022-11-16T18:04:21.518Z,96
2022-11-16T18:06:21.597Z,111
2022-11-16T18:08:21.922Z,98
2022-11-16T18:10:21.809Z,77
2022-11-16T18:12:21.971Z,68
2022-11-16T18:14:22.023Z,62
2022-11-16T18:16:22.110Z,72
2022-11-16T18:20:22.330Z,70
2022-11-16T18:22:22.430Z,80
2022-11-16T18:24:22.533Z,78
2022-11-16T18:26:22.671Z,79
2022-11-16T18:28:22.700Z,76
2022-11-16T18:30:22.805Z,74
2022-11-16T18:32:22.912Z,68
2022-11-16T18:34:23.019Z,72
2022-11-16T18:36:23.115Z,61
2022-11-16T18:38:23.212Z,64
2022-11-16T18:40:23.303Z,53
2022-11-16T18:42:23.406Z,57
2022-11-16T18:44:23.514Z,57
2022-11-16T18:46:23.581Z,59
2022-11-16T18:48:23.651Z,63
2022-11-16T18:50:26.893Z,61
2022-11-16T18:52:23.851Z,55
2022-11-16T18:54:23.937Z,52
2022-11-16T18:56:24.032Z,51
2022-11-16T18:58:49.232Z,51
2022-11-16T19:00:24.187Z,49
2022-11-16T19:02:24.258Z,50
2022-11-16T19:04:24.348Z,48
2022-11-16T19:06:24.436Z,45
2022-11-16T19:08:24.542Z,44
2022-11-16T19:12:24.724Z,53
2022-11-16T19:14:24.805Z,47
2022-11-16T19:16:24.920Z,47
2022-11-16T19:18:25.043Z,59
2022-11-16T19:20:25.083Z,53
2022-11-16T19:22:25.181Z,73
2022-11-16T19:24:25.262Z,75
2022-11-16T19:26:25.343Z,79
2022-11-16T19:28:25.479Z,65
2022-11-16T19:30:25.521Z,66
2022-11-16T19:32:25.603Z,64
2022-11-16T19:34:30.381Z,59
2022-11-16T19:36:25.783Z,56
2022-11-16T19:38:25.861Z,50
2022-11-16T19:40:25.956Z,45
2022-11-16T19:42:26.044Z,38
2022-11-16T19:44:26.113Z,31
2022-11-16T19:46:26.285Z,34
2022-11-16T19:48:26.356Z,38
2022-11-16T19:50:56.441Z,38
2022-11-16T19:52:56.548Z,43
2022-11-16T19:54:56.649Z,53
2022-11-16T19:56:56.769Z,51
2022-11-16T19:58:56.895Z,49
2022-11-16T20:00:57.029Z,55
2022-11-16T20:02:57.119Z,53
2022-11-16T20:04:57.250Z,46
2022-11-16T20:06:57.383Z,37
2022-11-16T20:08:57.499Z,42
2022-11-16T20:10:57.568Z,38
2022-11-16T20:12:57.689Z,34
2022-11-16T20:14:57.815Z,46
2022-11-16T20:16:57.928Z,67
2022-11-16T20:18:58.048Z,71
2022-11-16T20:20:58.158Z,61
2022-11-16T20:22:58.304Z,54
2022-11-16T20:24:58.360Z,61
2022-11-16T20:26:58.493Z,51
2022-11-16T20:28:58.603Z,48
2022-11-16T20:30:58.714Z,40
2022-11-16T20:32:58.813Z,43
2022-11-16T20:36:59.071Z,34
2022-11-16T20:38:59.171Z,32
2022-11-16T20:40:59.274Z,36
2022-11-16T20:42:59.370Z,36
2022-11-16T20:44:59.469Z,35
2022-11-16T20:46:59.569Z,41
2022-11-16T20:48:59.691Z,42
2022-11-16T20:50:59.797Z,41
2022-11-16T20:52:59.918Z,47
2022-11-16T20:55:00.032Z,58
2022-11-16T20:57:00.139Z,59
2022-11-16T20:59:00.251Z,52
2022-11-16T21:01:00.472Z,53
2022-11-16T21:03:00.476Z,52
2022-11-16T21:05:00.766Z,48
2022-11-16T21:07:00.736Z,48
2022-11-16T21:09:00.853Z,43
2022-11-16T21:11:00.901Z,38
2022-11-16T21:13:01.026Z,37
2022-11-16T21:15:01.122Z,35
2022-11-16T21:17:01.233Z,34
2022-11-16T21:19:01.349Z,36
2022-11-16T21:21:01.436Z,35
2022-11-16T21:23:01.517Z,35
2022-11-16T21:25:01.600Z,37
2022-11-16T21:27:01.693Z,41
2022-11-16T21:29:01.807Z,40
2022-11-16T21:31:01.898Z,37
2022-11-16T21:33:01.995Z,40
2022-11-16T21:35:02.112Z,41
2022-11-16T21:37:02.229Z,39
2022-11-16T21:39:02.329Z,40
2022-11-16T21:41:02.448Z,41
2022-11-16T21:43:02.523Z,42
2022-11-16T21:45:02.637Z,39
2022-11-16T21:47:02.748Z,41
2022-11-16T21:49:02.847Z,40
2022-11-16T21:51:02.943Z,37
2022-11-16T21:53:03.058Z,34
2022-11-16T21:55:03.164Z,35
2022-11-16T21:57:03.265Z,40
2022-11-16T21:59:03.360Z,39
2022-11-16T22:01:03.567Z,36
2022-11-16T22:03:03.579Z,39
2022-11-16T22:05:03.643Z,35
2022-11-16T22:07:03.761Z,35
2022-11-16T22:09:03.852Z,33
2022-11-16T22:11:03.944Z,33
2022-11-16T22:13:04.039Z,33
2022-11-16T22:15:04.137Z,31
2022-11-16T22:17:04.242Z,31
2022-11-16T22:19:04.363Z,32
2022-11-16T22:21:04.448Z,36
2022-11-16T22:23:04.555Z,33
2022-11-16T22:25:04.645Z,32
2022-11-16T22:27:04.810Z,32
2022-11-16T22:29:04.820Z,33
2022-11-16T22:31:04.896Z,29
2022-11-16T22:33:04.995Z,32
2022-11-16T22:35:05.078Z,40
2022-11-16T22:37:05.177Z,36
2022-11-16T22:39:05.291Z,34
2022-11-16T22:41:05.389Z,33
2022-11-16T22:43:05.493Z,39
2022-11-16T22:45:05.576Z,40
2022-11-16T22:47:05.712Z,37
2022-11-16T22:49:05.752Z,36
2022-11-16T22:51:05.838Z,31
2022-11-16T22:53:05.919Z,28
2022-11-16T22:55:06.017Z,32
2022-11-16T22:57:06.096Z,30
2022-11-16T22:59:06.194Z,27
2022-11-16T23:01:06.269Z,29
2022-11-16T23:03:06.407Z,27
2022-11-16T23:05:06.444Z,29
2022-11-16T23:07:06.679Z,31
2022-11-16T23:09:06.623Z,28
2022-11-16T23:11:06.714Z,30
2022-11-16T23:13:06.795Z,30
2022-11-16T23:15:06.899Z,33
2022-11-16T23:17:07.004Z,36
2022-11-16T23:19:07.079Z,36
2022-11-16T23:21:07.144Z,32
2022-11-16T23:23:07.230Z,37
2022-11-16T23:25:07.317Z,36
2022-11-16T23:27:07.464Z,40
2022-11-16T23:29:07.513Z,37
2022-11-16T23:31:07.623Z,36
2022-11-16T23:33:07.691Z,39
2022-11-16T23:35:07.772Z,44
2022-11-16T23:37:07.865Z,47
2022-11-16T23:39:07.953Z,39
2022-11-16T23:41:08.159Z,39
2022-11-16T23:43:08.142Z,36
2022-11-16T23:45:08.232Z,38
2022-11-16T23:47:38.693Z,38
2022-11-16T23:49:38.507Z,40
2022-11-16T23:51:38.633Z,40
2022-11-16T23:53:38.741Z,41
2022-11-16T23:55:38.853Z,41
2022-11-16T23:57:38.961Z,41
2022-11-16T23:59:39.085Z,35
